createdAt,value
2017-02-11T00:00:40.957Z,0
2017-02-11T00:01:41.026Z,0
2017-02-11T00:02:41.070Z,0
2017-02-11T00:03:41.130Z,0
2017-02-11T00:04:41.192Z,0
2017-02-11T00:05:41.242Z,0
2017-02-11T00:06:41.292Z,0
2017-02-11T00:07:41.355Z,0
2017-02-11T00:08:41.394Z,0
2017-02-11T00:09:41.462Z,0
2017-02-11T00:10:41.524Z,0
2017-02-11T00:11:41.580Z,0
2017-02-11T00:12:41.622Z,0
2017-02-11T00:13:41.680Z,0
2017-02-11T00:14:41.737Z,0
2017-02-11T00:15:41.780Z,0
2017-02-11T00:16:41.840Z,0
2017-02-11T00:17:41.914Z,0
2017-02-11T00:18:41.957Z,0
2017-02-11T00:19:42.008Z,0
2017-02-11T00:20:42.057Z,0
2017-02-11T00:21:42.107Z,0
2017-02-11T00:22:42.171Z,0
2017-02-11T00:23:42.227Z,0
2017-02-11T00:24:42.294Z,0
2017-02-11T00:25:42.338Z,0
2017-02-11T00:26:42.386Z,0
2017-02-11T00:27:42.451Z,0
2017-02-11T00:28:42.506Z,0
2017-02-11T00:29:42.555Z,0
2017-02-11T00:30:42.603Z,0
2017-02-11T00:31:42.661Z,0
2017-02-11T00:32:42.721Z,0
2017-02-11T00:33:42.779Z,0
2017-02-11T00:34:42.843Z,0
2017-02-11T00:35:42.887Z,0
2017-02-11T00:36:42.934Z,0
2017-02-11T00:37:43.003Z,0
2017-02-11T00:38:43.061Z,0
2017-02-11T00:39:43.115Z,0
2017-02-11T00:40:43.154Z,0
2017-02-11T00:41:43.224Z,0
2017-02-11T00:42:43.266Z,0
2017-02-11T00:43:43.320Z,0
2017-02-11T00:44:43.388Z,0
2017-02-11T00:45:43.439Z,0
2017-02-11T00:46:43.484Z,0
2017-02-11T00:47:43.555Z,0
2017-02-11T00:48:43.590Z,0
2017-02-11T00:49:43.663Z,0
2017-02-11T00:50:43.704Z,0
2017-02-11T00:51:43.760Z,0
2017-02-11T00:52:43.813Z,0
2017-02-11T00:53:43.882Z,0
2017-02-11T00:54:43.928Z,0
2017-02-11T00:55:43.974Z,0
2017-02-11T00:56:43.659Z,0
2017-02-11T00:57:44.086Z,0
2017-02-11T00:58:44.149Z,0
2017-02-11T00:59:44.205Z,0
2017-02-11T01:00:44.270Z,0
2017-02-11T01:01:44.315Z,0
2017-02-11T01:02:43.609Z,0
2017-02-11T01:03:44.424Z,0
2017-02-11T01:04:44.489Z,0
2017-02-11T01:05:44.525Z,0
2017-02-11T01:06:44.580Z,0
2017-02-11T01:07:44.648Z,0
2017-02-11T01:08:44.704Z,0
2017-02-11T01:09:44.764Z,0
2017-02-11T01:10:44.818Z,0
2017-02-11T01:11:44.861Z,0
2017-02-11T01:12:44.916Z,0
2017-02-11T01:13:44.980Z,0
2017-02-11T01:14:45.035Z,0
2017-02-11T01:15:45.091Z,0
2017-02-11T01:16:45.147Z,0
2017-02-11T01:17:45.184Z,0
2017-02-11T01:18:45.244Z,0
2017-02-11T01:19:45.308Z,0
2017-02-11T01:20:45.349Z,0
2017-02-11T01:21:45.405Z,0
2017-02-11T01:22:45.475Z,0
2017-02-11T01:23:45.521Z,0
2017-02-11T01:24:45.568Z,0
2017-02-11T01:25:45.640Z,0
2017-02-11T01:26:45.688Z,0
2017-02-11T01:27:45.748Z,0
2017-02-11T01:28:45.804Z,0
2017-02-11T01:29:45.846Z,0
2017-02-11T01:30:45.918Z,0
2017-02-11T01:31:46.007Z,0
2017-02-11T01:32:46.015Z,0
2017-02-11T01:33:46.070Z,0
2017-02-11T01:34:46.124Z,0
2017-02-11T01:35:46.187Z,0
2017-02-11T01:36:46.243Z,0
2017-02-11T01:37:46.285Z,0
2017-02-11T01:38:46.334Z,0
2017-02-11T01:39:46.407Z,0
2017-02-11T01:40:46.445Z,0
2017-02-11T01:41:46.503Z,0
2017-02-11T01:42:46.564Z,0
2017-02-11T01:43:46.628Z,0
2017-02-11T01:44:46.681Z,0
2017-02-11T01:45:46.716Z,0
2017-02-11T01:46:46.790Z,0
2017-02-11T01:47:46.851Z,0
2017-02-11T01:48:46.897Z,0
2017-02-11T01:49:46.946Z,0
2017-02-11T01:50:46.994Z,0
2017-02-11T01:51:47.055Z,0
2017-02-11T01:52:47.112Z,0
2017-02-11T01:53:47.188Z,0
2017-02-11T01:54:47.219Z,0
2017-02-11T01:55:47.272Z,0
2017-02-11T01:56:47.333Z,0
2017-02-11T01:57:47.378Z,0
2017-02-11T01:58:47.450Z,0
2017-02-11T01:59:47.501Z,0
2017-02-11T02:00:47.551Z,0
2017-02-11T02:01:47.607Z,0
2017-02-11T02:02:47.662Z,0
2017-02-11T02:03:47.725Z,0
2017-02-11T02:04:47.760Z,0
2017-02-11T02:05:47.830Z,0
2017-02-11T02:06:47.884Z,0
2017-02-11T02:07:47.935Z,0
2017-02-11T02:08:47.995Z,0
2017-02-11T02:09:48.036Z,0
2017-02-11T02:10:48.128Z,0
2017-02-11T02:11:48.148Z,0
2017-02-11T02:12:48.198Z,0
2017-02-11T02:13:48.255Z,0
2017-02-11T02:14:48.319Z,0
2017-02-11T02:15:48.374Z,0
2017-02-11T02:16:48.435Z,0
2017-02-11T02:17:48.476Z,0
2017-02-11T02:18:48.532Z,0
2017-02-11T02:19:48.595Z,0
2017-02-11T02:20:48.649Z,0
2017-02-11T02:21:48.710Z,0
2017-02-11T02:22:48.761Z,0
2017-02-11T02:23:48.815Z,0
2017-02-11T02:24:48.899Z,0
2017-02-11T02:25:48.922Z,0
2017-02-11T02:26:48.972Z,0
2017-02-11T02:27:49.025Z,0
2017-02-11T02:28:49.088Z,0
2017-02-11T02:29:49.130Z,0
2017-02-11T02:30:49.197Z,0
2017-02-11T02:31:48.862Z,0
2017-02-11T02:32:49.295Z,0
2017-02-11T02:33:49.362Z,0
2017-02-11T02:34:49.412Z,0
2017-02-11T02:35:49.091Z,0
2017-02-11T02:36:49.533Z,0
2017-02-11T02:37:49.577Z,0
2017-02-11T02:38:49.636Z,0
2017-02-11T02:39:49.681Z,0
2017-02-11T02:40:49.742Z,0
2017-02-11T02:41:49.797Z,0
2017-02-11T02:42:49.841Z,0
2017-02-11T02:43:49.898Z,0
2017-02-11T02:44:49.959Z,0
2017-02-11T02:45:50.017Z,0
2017-02-11T02:46:50.079Z,0
2017-02-11T02:47:50.129Z,0
2017-02-11T02:48:50.176Z,0
2017-02-11T02:49:50.237Z,0
2017-02-11T02:50:50.287Z,0
2017-02-11T02:51:50.356Z,0
2017-02-11T02:52:50.400Z,0
2017-02-11T02:53:50.453Z,0
2017-02-11T02:54:50.520Z,0
2017-02-11T02:55:50.558Z,0
2017-02-11T02:56:50.631Z,0
2017-02-11T02:57:50.673Z,0
2017-02-11T02:58:50.729Z,0
2017-02-11T02:59:50.796Z,0
2017-02-11T03:00:50.851Z,0
2017-02-11T03:01:50.896Z,0
2017-02-11T03:02:50.954Z,0
2017-02-11T03:03:51.002Z,0
2017-02-11T03:04:51.069Z,0
2017-02-11T03:05:51.107Z,0
2017-02-11T03:06:51.160Z,0
2017-02-11T03:07:51.232Z,0
2017-02-11T03:08:51.280Z,0
2017-02-11T03:09:51.336Z,0
2017-02-11T03:10:51.389Z,0
2017-02-11T03:11:51.458Z,0
2017-02-11T03:12:51.497Z,0
2017-02-11T03:13:51.544Z,0
2017-02-11T03:14:51.598Z,0
2017-02-11T03:15:51.659Z,0
2017-02-11T03:16:51.718Z,0
2017-02-11T03:17:51.779Z,0
2017-02-11T03:18:51.828Z,0
2017-02-11T03:19:51.881Z,0
2017-02-11T03:20:51.944Z,0
2017-02-11T03:21:51.993Z,0
2017-02-11T03:22:52.040Z,0
2017-02-11T03:23:52.109Z,0
2017-02-11T03:24:52.148Z,0
2017-02-11T03:25:52.219Z,0
2017-02-11T03:26:51.875Z,0
2017-02-11T03:27:52.320Z,0
2017-02-11T03:28:51.996Z,0
2017-02-11T03:29:52.049Z,0
2017-02-11T03:30:52.482Z,0
2017-02-11T03:31:52.149Z,0
2017-02-11T03:32:52.596Z,0
2017-02-11T03:33:52.667Z,0
2017-02-11T03:34:52.701Z,0
2017-02-11T03:35:52.760Z,0
2017-02-11T03:36:52.814Z,0
2017-02-11T03:37:52.484Z,0
2017-02-11T03:38:52.926Z,0
2017-02-11T03:39:52.978Z,0
2017-02-11T03:40:53.037Z,0
2017-02-11T03:41:53.080Z,0
2017-02-11T03:42:53.154Z,0
2017-02-11T03:43:53.191Z,0
2017-02-11T03:44:53.242Z,0
2017-02-11T03:45:53.311Z,0
2017-02-11T03:46:53.349Z,0
2017-02-11T03:47:53.410Z,0
2017-02-11T03:48:53.458Z,0
2017-02-11T03:49:53.533Z,0
2017-02-11T03:50:53.579Z,0
2017-02-11T03:51:53.645Z,0
2017-02-11T03:52:53.687Z,0
2017-02-11T03:53:53.736Z,0
2017-02-11T03:54:53.786Z,0
2017-02-11T03:55:53.851Z,0
2017-02-11T03:56:53.907Z,0
2017-02-11T03:57:53.957Z,0
2017-02-11T03:58:54.023Z,0
2017-02-11T03:59:54.068Z,0
2017-02-11T04:00:54.133Z,0
2017-02-11T04:01:54.190Z,0
2017-02-11T04:02:54.239Z,0
2017-02-11T04:03:54.302Z,0
2017-02-11T04:04:54.346Z,0
2017-02-11T04:05:54.400Z,0
2017-02-11T04:06:54.449Z,0
2017-02-11T04:07:54.551Z,0
2017-02-11T04:08:54.560Z,0
2017-02-11T04:09:54.623Z,0
2017-02-11T04:10:54.675Z,0
2017-02-11T04:11:54.723Z,0
2017-02-11T04:12:54.783Z,0
2017-02-11T04:13:54.831Z,0
2017-02-11T04:14:54.891Z,0
2017-02-11T04:15:54.950Z,0
2017-02-11T04:16:55.006Z,0
2017-02-11T04:17:55.068Z,0
2017-02-11T04:18:55.113Z,0
2017-02-11T04:19:54.796Z,0
2017-02-11T04:20:55.238Z,0
2017-02-11T04:21:55.276Z,0
2017-02-11T04:22:55.334Z,0
2017-02-11T04:23:55.381Z,0
2017-02-11T04:24:55.445Z,0
2017-02-11T04:25:55.491Z,0
2017-02-11T04:26:55.560Z,0
2017-02-11T04:27:55.602Z,0
2017-02-11T04:28:55.658Z,0
2017-02-11T04:29:55.703Z,0
2017-02-11T04:30:55.771Z,0
2017-02-11T04:31:55.816Z,0
2017-02-11T04:32:55.881Z,0
2017-02-11T04:33:55.933Z,0
2017-02-11T04:34:55.990Z,0
2017-02-11T04:35:56.042Z,0
2017-02-11T04:36:56.103Z,0
2017-02-11T04:37:56.160Z,0
2017-02-11T04:38:56.208Z,0
2017-02-11T04:39:56.257Z,0
2017-02-11T04:40:56.317Z,0
2017-02-11T04:41:56.370Z,0
2017-02-11T04:42:56.424Z,0
2017-02-11T04:43:56.466Z,0
2017-02-11T04:44:56.534Z,0
2017-02-11T04:45:56.588Z,0
2017-02-11T04:46:56.651Z,0
2017-02-11T04:47:56.700Z,0
2017-02-11T04:48:56.760Z,0
2017-02-11T04:49:56.814Z,0
2017-02-11T04:50:56.857Z,0
2017-02-11T04:51:56.926Z,0
2017-02-11T04:52:56.973Z,0
2017-02-11T04:53:57.035Z,0
2017-02-11T04:54:57.075Z,0
2017-02-11T04:55:56.747Z,0
2017-02-11T04:56:57.184Z,0
2017-02-11T04:57:57.251Z,0
2017-02-11T04:58:57.307Z,0
2017-02-11T04:59:57.346Z,0
2017-02-11T05:00:57.413Z,0
2017-02-11T05:01:57.456Z,0
2017-02-11T05:02:57.520Z,0
2017-02-11T05:03:57.573Z,0
2017-02-11T05:04:57.626Z,0
2017-02-11T05:05:57.681Z,0
2017-02-11T05:06:57.746Z,0
2017-02-11T05:07:57.794Z,0
2017-02-11T05:08:57.844Z,0
2017-02-11T05:09:57.901Z,0
2017-02-11T05:10:57.954Z,0
2017-02-11T05:11:58.010Z,0
2017-02-11T05:12:58.066Z,0
2017-02-11T05:13:58.120Z,0
2017-02-11T05:14:58.183Z,0
2017-02-11T05:15:58.224Z,0
2017-02-11T05:16:58.285Z,0
2017-02-11T05:17:58.341Z,0
2017-02-11T05:18:58.003Z,0
2017-02-11T05:19:58.447Z,0
2017-02-11T05:20:58.504Z,0
2017-02-11T05:21:58.557Z,0
2017-02-11T05:22:58.613Z,0
2017-02-11T05:23:58.658Z,0
2017-02-11T05:24:58.720Z,0
2017-02-11T05:25:58.772Z,0
2017-02-11T05:26:58.828Z,0
2017-02-11T05:27:58.896Z,0
2017-02-11T05:28:58.935Z,0
2017-02-11T05:29:59.000Z,0
2017-02-11T05:30:59.048Z,0
2017-02-11T05:31:59.113Z,0
2017-02-11T05:32:59.166Z,0
2017-02-11T05:33:59.211Z,0
2017-02-11T05:34:59.262Z,0
2017-02-11T05:35:59.329Z,0
2017-02-11T05:36:59.382Z,0
2017-02-11T05:37:59.426Z,0
2017-02-11T05:38:59.478Z,0
2017-02-11T05:39:59.539Z,0
2017-02-11T05:40:59.602Z,0
2017-02-11T05:41:59.642Z,0
2017-02-11T05:42:59.692Z,0
2017-02-11T05:43:59.764Z,0
2017-02-11T05:44:59.821Z,0
2017-02-11T05:45:59.863Z,0
2017-02-11T05:46:59.950Z,0
2017-02-11T05:47:59.973Z,0
2017-02-11T05:49:00.032Z,0
2017-02-11T05:50:00.081Z,0
2017-02-11T05:51:00.139Z,0
2017-02-11T05:52:00.199Z,0
2017-02-11T05:53:00.242Z,0
2017-02-11T05:54:00.302Z,0
2017-02-11T05:55:00.357Z,0
2017-02-11T05:56:00.401Z,0
2017-02-11T05:57:00.466Z,0
2017-02-11T05:58:00.519Z,0
2017-02-11T05:59:00.566Z,0
2017-02-11T06:00:00.619Z,0
2017-02-11T06:01:00.674Z,0
2017-02-11T06:02:00.741Z,0
2017-02-11T06:03:00.797Z,0
2017-02-11T06:04:00.857Z,0
2017-02-11T06:05:00.900Z,0
2017-02-11T06:06:00.954Z,0
2017-02-11T06:07:01.011Z,0
2017-02-11T06:08:01.052Z,4
2017-02-11T06:09:01.130Z,4
2017-02-11T06:10:01.173Z,4
2017-02-11T06:11:01.219Z,4
2017-02-11T06:12:01.290Z,0
2017-02-11T06:13:01.345Z,4
2017-02-11T06:14:01.397Z,4
2017-02-11T06:15:01.441Z,4
2017-02-11T06:16:01.519Z,8
2017-02-11T06:17:01.548Z,8
2017-02-11T06:18:01.606Z,4
2017-02-11T06:19:01.659Z,8
2017-02-11T06:20:01.704Z,8
2017-02-11T06:21:01.762Z,8
2017-02-11T06:22:01.811Z,12
2017-02-11T06:23:01.878Z,12
2017-02-11T06:24:01.932Z,12
2017-02-11T06:25:01.989Z,16
2017-02-11T06:26:02.034Z,16
2017-02-11T06:27:02.092Z,20
2017-02-11T06:28:02.156Z,20
2017-02-11T06:29:02.212Z,20
2017-02-11T06:30:02.246Z,24
2017-02-11T06:31:02.304Z,28
2017-02-11T06:32:02.362Z,32
2017-02-11T06:33:02.433Z,32
2017-02-11T06:34:02.465Z,40
2017-02-11T06:35:02.530Z,40
2017-02-11T06:36:02.573Z,48
2017-02-11T06:37:02.645Z,52
2017-02-11T06:38:02.684Z,64
2017-02-11T06:39:02.753Z,92
2017-02-11T06:40:02.794Z,124
2017-02-11T06:41:02.894Z,148
2017-02-11T06:42:02.896Z,168
2017-02-11T06:43:02.964Z,192
2017-02-11T06:44:03.018Z,212
2017-02-11T06:45:03.076Z,228
2017-02-11T06:46:03.119Z,244
2017-02-11T06:47:03.181Z,256
2017-02-11T06:48:03.239Z,272
2017-02-11T06:49:02.893Z,300
2017-02-11T06:50:03.356Z,320
2017-02-11T06:51:03.408Z,336
2017-02-11T06:52:03.448Z,356
2017-02-11T06:53:03.500Z,372
2017-02-11T06:54:03.565Z,396
2017-02-11T06:55:03.613Z,412
2017-02-11T06:56:03.674Z,408
2017-02-11T06:57:03.728Z,444
2017-02-11T06:58:03.782Z,460
2017-02-11T06:59:03.827Z,468
2017-02-11T07:00:03.876Z,480
2017-02-11T07:01:03.931Z,512
2017-02-11T07:02:04.003Z,544
2017-02-11T07:03:04.041Z,568
2017-02-11T07:04:04.115Z,592
2017-02-11T07:05:04.168Z,612
2017-02-11T07:06:04.212Z,632
2017-02-11T07:07:04.269Z,656
2017-02-11T07:08:04.325Z,672
2017-02-11T07:09:04.377Z,688
2017-02-11T07:10:04.438Z,700
2017-02-11T07:11:04.484Z,716
2017-02-11T07:12:04.533Z,728
2017-02-11T07:13:04.605Z,740
2017-02-11T07:14:04.650Z,760
2017-02-11T07:15:04.700Z,772
2017-02-11T07:16:04.763Z,792
2017-02-11T07:17:04.810Z,812
2017-02-11T07:18:04.874Z,836
2017-02-11T07:19:04.919Z,852
2017-02-11T07:20:04.965Z,876
2017-02-11T07:21:05.022Z,896
2017-02-11T07:22:05.087Z,908
2017-02-11T07:23:05.141Z,928
2017-02-11T07:24:05.204Z,920
2017-02-11T07:25:04.861Z,956
2017-02-11T07:26:05.311Z,976
2017-02-11T07:27:05.351Z,992
2017-02-11T07:28:05.408Z,1004
2017-02-11T07:29:05.471Z,1020
2017-02-11T07:30:05.512Z,1044
2017-02-11T07:31:05.571Z,1068
2017-02-11T07:32:05.633Z,1036
2017-02-11T07:33:05.686Z,872
2017-02-11T07:34:05.738Z,764
2017-02-11T07:35:05.805Z,868
2017-02-11T07:36:05.857Z,812
2017-02-11T07:37:05.897Z,836
2017-02-11T07:38:05.954Z,756
2017-02-11T07:39:06.014Z,732
2017-02-11T07:40:06.077Z,692
2017-02-11T07:41:06.122Z,648
2017-02-11T07:42:06.179Z,588
2017-02-11T07:43:06.236Z,720
2017-02-11T07:44:06.291Z,508
2017-02-11T07:45:06.339Z,380
2017-02-11T07:46:06.389Z,352
2017-02-11T07:47:06.450Z,376
2017-02-11T07:48:06.507Z,408
2017-02-11T07:49:06.585Z,468
2017-02-11T07:50:06.607Z,712
2017-02-11T07:51:06.677Z,1016
2017-02-11T07:52:06.726Z,1280
2017-02-11T07:53:06.779Z,1276
2017-02-11T07:54:06.840Z,1288
2017-02-11T07:55:06.890Z,1300
2017-02-11T07:56:06.561Z,1312
2017-02-11T07:57:07.001Z,1320
2017-02-11T07:58:07.049Z,1332
2017-02-11T07:59:07.144Z,1336
2017-02-11T08:00:07.163Z,1348
2017-02-11T08:01:07.215Z,1356
2017-02-11T08:02:07.278Z,1364
2017-02-11T08:03:07.330Z,1384
2017-02-11T08:04:07.387Z,1400
2017-02-11T08:05:07.446Z,1412
2017-02-11T08:06:07.499Z,1400
2017-02-11T08:07:07.557Z,1404
2017-02-11T08:08:07.594Z,1424
2017-02-11T08:09:07.665Z,1424
2017-02-11T08:10:07.330Z,1424
2017-02-11T08:11:07.764Z,1424
2017-02-11T08:12:07.824Z,1428
2017-02-11T08:13:07.878Z,1432
2017-02-11T08:14:07.934Z,1440
2017-02-11T08:15:07.597Z,1448
2017-02-11T08:16:08.044Z,1452
2017-02-11T08:17:08.095Z,1456
2017-02-11T08:18:08.154Z,1464
2017-02-11T08:19:08.209Z,1472
2017-02-11T08:20:08.270Z,1480
2017-02-11T08:21:08.330Z,1488
2017-02-11T08:22:07.991Z,1496
2017-02-11T08:23:08.436Z,1508
2017-02-11T08:24:08.488Z,1516
2017-02-11T08:25:08.531Z,1528
2017-02-11T08:26:08.598Z,1540
2017-02-11T08:27:08.639Z,1552
2017-02-11T08:28:08.703Z,1572
2017-02-11T08:29:08.765Z,1580
2017-02-11T08:30:08.434Z,1600
2017-02-11T08:31:08.874Z,1616
2017-02-11T08:32:08.919Z,1628
2017-02-11T08:33:08.967Z,1636
2017-02-11T08:34:09.028Z,1648
2017-02-11T08:35:09.075Z,1652
2017-02-11T08:36:09.140Z,1664
2017-02-11T08:37:09.193Z,1668
2017-02-11T08:38:09.257Z,1684
2017-02-11T08:39:09.303Z,1700
2017-02-11T08:40:09.355Z,1708
2017-02-11T08:41:09.434Z,1704
2017-02-11T08:42:09.479Z,1724
2017-02-11T08:43:09.538Z,1740
2017-02-11T08:44:09.581Z,1700
2017-02-11T08:45:09.255Z,1724
2017-02-11T08:46:09.685Z,1616
2017-02-11T08:47:09.354Z,1476
2017-02-11T08:48:09.784Z,1424
2017-02-11T08:49:09.455Z,1620
2017-02-11T08:50:09.521Z,1752
2017-02-11T08:51:09.960Z,1620
2017-02-11T08:52:10.006Z,1648
2017-02-11T08:53:09.691Z,1812
2017-02-11T08:54:10.123Z,1820
2017-02-11T08:55:10.181Z,1836
2017-02-11T08:56:10.228Z,1836
2017-02-11T08:57:10.284Z,1844
2017-02-11T08:58:09.955Z,1856
2017-02-11T08:59:10.393Z,1868
2017-02-11T09:00:10.068Z,1872
2017-02-11T09:01:10.130Z,1884
2017-02-11T09:02:10.559Z,1888
2017-02-11T09:03:10.252Z,1896
2017-02-11T09:04:10.670Z,1904
2017-02-11T09:05:10.724Z,1908
2017-02-11T09:06:10.777Z,1912
2017-02-11T09:07:10.836Z,1916
2017-02-11T09:08:10.880Z,1920
2017-02-11T09:09:10.555Z,1924
2017-02-11T09:10:10.619Z,1936
2017-02-11T09:11:11.055Z,1940
2017-02-11T09:12:11.112Z,1948
2017-02-11T09:13:11.164Z,1952
2017-02-11T09:14:10.832Z,1960
2017-02-11T09:15:11.267Z,1968
2017-02-11T09:16:11.324Z,1976
2017-02-11T09:17:11.002Z,1980
2017-02-11T09:18:11.433Z,1996
2017-02-11T09:19:11.500Z,2000
2017-02-11T09:20:11.544Z,2016
2017-02-11T09:21:11.603Z,2020
2017-02-11T09:22:11.649Z,2028
2017-02-11T09:23:11.717Z,2044
2017-02-11T09:24:11.383Z,2052
2017-02-11T09:25:11.822Z,2076
2017-02-11T09:26:11.485Z,2084
2017-02-11T09:27:11.932Z,2092
2017-02-11T09:28:12.011Z,2092
2017-02-11T09:29:12.043Z,2104
2017-02-11T09:30:12.095Z,2120
2017-02-11T09:31:12.158Z,2124
2017-02-11T09:32:11.825Z,2140
2017-02-11T09:33:12.258Z,2152
2017-02-11T09:34:11.928Z,2168
2017-02-11T09:35:12.367Z,2184
2017-02-11T09:36:12.037Z,2200
2017-02-11T09:37:12.496Z,2216
2017-02-11T09:38:12.550Z,2232
2017-02-11T09:39:12.591Z,2244
2017-02-11T09:40:12.642Z,2260
2017-02-11T09:41:12.703Z,2268
2017-02-11T09:42:12.766Z,2268
2017-02-11T09:43:12.422Z,2296
2017-02-11T09:44:12.896Z,2316
2017-02-11T09:45:12.917Z,2336
2017-02-11T09:46:12.601Z,2356
2017-02-11T09:47:13.029Z,2380
2017-02-11T09:48:13.096Z,2404
2017-02-11T09:49:13.151Z,2420
2017-02-11T09:50:13.211Z,2436
2017-02-11T09:51:13.253Z,2460
2017-02-11T09:52:13.311Z,2488
2017-02-11T09:53:13.377Z,2500
2017-02-11T09:54:13.426Z,2516
2017-02-11T09:55:13.096Z,2540
2017-02-11T09:56:13.139Z,2568
2017-02-11T09:57:13.589Z,2600
2017-02-11T09:58:13.643Z,2624
2017-02-11T09:59:13.696Z,2648
2017-02-11T10:00:13.760Z,2672
2017-02-11T10:01:13.821Z,2692
2017-02-11T10:02:13.484Z,2748
2017-02-11T10:03:13.549Z,2852
2017-02-11T10:04:13.971Z,2976
2017-02-11T10:05:14.026Z,2996
2017-02-11T10:06:14.086Z,2984
2017-02-11T10:07:13.758Z,3012
2017-02-11T10:08:13.828Z,3048
2017-02-11T10:09:14.255Z,3084
2017-02-11T10:10:14.320Z,3152
2017-02-11T10:11:13.991Z,3148
2017-02-11T10:12:14.422Z,3160
2017-02-11T10:13:14.495Z,3152
2017-02-11T10:14:14.540Z,3124
2017-02-11T10:15:14.597Z,3144
2017-02-11T10:16:14.646Z,3160
2017-02-11T10:17:14.703Z,3148
2017-02-11T10:18:14.375Z,3148
2017-02-11T10:19:14.828Z,3168
2017-02-11T10:20:14.889Z,3196
2017-02-11T10:21:14.931Z,3220
2017-02-11T10:22:14.986Z,3228
2017-02-11T10:23:14.669Z,3236
2017-02-11T10:24:14.719Z,3248
2017-02-11T10:25:14.784Z,3292
2017-02-11T10:26:15.219Z,3332
2017-02-11T10:27:15.282Z,3336
2017-02-11T10:28:15.333Z,3384
2017-02-11T10:29:15.382Z,3404
2017-02-11T10:30:15.451Z,3372
2017-02-11T10:31:15.506Z,3524
2017-02-11T10:32:15.558Z,3592
2017-02-11T10:33:15.242Z,3644
2017-02-11T10:34:15.677Z,3908
2017-02-11T10:35:15.349Z,4260
2017-02-11T10:36:15.795Z,4628
2017-02-11T10:37:15.850Z,4408
2017-02-11T10:38:15.903Z,4580
2017-02-11T10:39:15.964Z,4904
2017-02-11T10:40:16.016Z,5412
2017-02-11T10:41:16.081Z,5344
2017-02-11T10:42:16.133Z,5304
2017-02-11T10:43:16.197Z,5384
2017-02-11T10:44:16.253Z,5876
2017-02-11T10:45:16.303Z,6988
2017-02-11T10:46:16.366Z,8668
2017-02-11T10:47:16.422Z,8932
2017-02-11T10:48:16.487Z,9628
2017-02-11T10:49:16.536Z,11436
2017-02-11T10:50:16.593Z,9788
2017-02-11T10:51:16.651Z,8120
2017-02-11T10:52:16.708Z,7364
2017-02-11T10:53:16.760Z,7864
2017-02-11T10:54:16.827Z,10152
2017-02-11T10:55:16.908Z,13852
2017-02-11T10:56:16.935Z,19840
2017-02-11T10:57:17.009Z,20224
2017-02-11T10:58:17.065Z,16016
2017-02-11T10:59:17.122Z,13968
2017-02-11T11:00:17.174Z,13192
2017-02-11T11:01:17.229Z,13112
2017-02-11T11:02:16.913Z,19360
2017-02-11T11:03:16.963Z,29568
2017-02-11T11:04:17.016Z,31008
2017-02-11T11:05:17.461Z,24672
2017-02-11T11:06:17.582Z,21888
2017-02-11T11:07:17.581Z,23712
2017-02-11T11:08:17.650Z,19712
2017-02-11T11:09:17.306Z,10796
2017-02-11T11:10:17.763Z,14340
2017-02-11T11:11:17.806Z,15644
2017-02-11T11:12:17.894Z,18880
2017-02-11T11:13:17.929Z,26112
2017-02-11T11:14:17.990Z,29760
2017-02-11T11:15:18.063Z,36672
2017-02-11T11:16:18.103Z,49312
2017-02-11T11:17:18.158Z,35744
2017-02-11T11:18:18.235Z,43552
2017-02-11T11:19:18.278Z,45696
2017-02-11T11:20:18.336Z,40192
2017-02-11T11:21:18.401Z,45504
2017-02-11T11:22:18.450Z,53312
2017-02-11T11:23:18.526Z,46016
2017-02-11T11:24:18.588Z,34656
2017-02-11T11:25:18.643Z,32384
2017-02-11T11:26:18.304Z,32928
2017-02-11T11:27:18.752Z,31776
2017-02-11T11:28:18.813Z,25280
2017-02-11T11:29:18.880Z,20640
2017-02-11T11:30:18.938Z,20416
2017-02-11T11:31:18.994Z,21632
2017-02-11T11:32:18.664Z,19648
2017-02-11T11:33:19.106Z,17888
2017-02-11T11:34:19.162Z,17352
2017-02-11T11:35:19.225Z,16872
2017-02-11T11:36:19.278Z,16280
2017-02-11T11:37:18.959Z,15628
2017-02-11T11:38:19.404Z,15372
2017-02-11T11:39:19.472Z,15416
2017-02-11T11:40:19.123Z,15380
2017-02-11T11:41:19.586Z,14848
2017-02-11T11:42:19.634Z,14520
2017-02-11T11:43:19.702Z,13908
2017-02-11T11:44:19.752Z,13680
2017-02-11T11:45:19.819Z,13408
2017-02-11T11:46:19.863Z,12120
2017-02-11T11:47:19.938Z,9672
2017-02-11T11:48:19.985Z,11144
2017-02-11T11:49:20.046Z,5608
2017-02-11T11:50:20.093Z,3636
2017-02-11T11:51:20.156Z,3276
2017-02-11T11:52:20.224Z,2848
2017-02-11T11:53:20.277Z,2984
2017-02-11T11:54:20.329Z,2844
2017-02-11T11:55:20.395Z,2784
2017-02-11T11:56:20.447Z,2448
2017-02-11T11:57:20.512Z,2608
2017-02-11T11:58:20.570Z,2712
2017-02-11T11:59:20.622Z,2680
2017-02-11T12:00:20.683Z,2624
2017-02-11T12:01:20.731Z,2612
2017-02-11T12:02:20.949Z,2676
2017-02-11T12:03:20.864Z,2636
2017-02-11T12:04:20.906Z,2600
2017-02-11T12:05:20.973Z,2556
2017-02-11T12:06:21.027Z,2532
2017-02-11T12:07:21.088Z,2336
2017-02-11T12:08:21.142Z,2084
2017-02-11T12:09:21.200Z,2420
2017-02-11T12:10:21.254Z,2380
2017-02-11T12:11:21.304Z,2332
2017-02-11T12:12:21.373Z,2396
2017-02-11T12:13:21.436Z,2576
2017-02-11T12:14:21.479Z,2576
2017-02-11T12:15:21.535Z,2564
2017-02-11T12:16:21.607Z,2532
2017-02-11T12:17:21.648Z,2484
2017-02-11T12:18:21.709Z,2356
2017-02-11T12:19:21.386Z,2336
2017-02-11T12:20:21.444Z,2364
2017-02-11T12:21:21.877Z,2384
2017-02-11T12:22:21.956Z,2400
2017-02-11T12:23:21.988Z,2340
2017-02-11T12:24:22.066Z,2224
2017-02-11T12:25:22.116Z,2212
2017-02-11T12:26:22.176Z,2216
2017-02-11T12:27:22.235Z,2224
2017-02-11T12:28:22.284Z,2220
2017-02-11T12:29:22.362Z,2268
2017-02-11T12:30:22.391Z,2328
2017-02-11T12:31:22.454Z,2276
2017-02-11T12:32:22.508Z,2308
2017-02-11T12:33:22.566Z,2308
2017-02-11T12:34:22.235Z,2300
2017-02-11T12:35:22.324Z,2312
2017-02-11T12:36:22.739Z,2316
2017-02-11T12:37:22.803Z,2312
2017-02-11T12:38:22.856Z,2296
2017-02-11T12:39:22.907Z,2292
2017-02-11T12:40:22.586Z,2288
2017-02-11T12:41:23.024Z,2288
2017-02-11T12:42:23.081Z,2284
2017-02-11T12:43:23.140Z,2272
2017-02-11T12:44:23.197Z,2260
2017-02-11T12:45:23.247Z,2128
2017-02-11T12:46:22.925Z,2252
2017-02-11T12:47:23.351Z,2256
2017-02-11T12:48:23.429Z,2252
2017-02-11T12:49:23.477Z,2240
2017-02-11T12:50:23.524Z,2224
2017-02-11T12:51:23.581Z,2224
2017-02-11T12:52:23.651Z,2224
2017-02-11T12:53:23.310Z,2184
2017-02-11T12:54:23.756Z,2240
2017-02-11T12:55:23.809Z,2224
2017-02-11T12:56:23.479Z,2208
2017-02-11T12:57:23.937Z,2212
2017-02-11T12:58:23.983Z,2208
2017-02-11T12:59:24.035Z,2196
2017-02-11T13:00:24.090Z,2192
2017-02-11T13:01:23.771Z,2180
2017-02-11T13:02:24.217Z,2168
2017-02-11T13:03:24.264Z,2164
2017-02-11T13:04:24.358Z,2148
2017-02-11T13:05:24.393Z,2140
2017-02-11T13:06:24.433Z,2132
2017-02-11T13:07:24.110Z,2124
2017-02-11T13:08:24.551Z,2076
2017-02-11T13:09:24.615Z,2116
2017-02-11T13:10:24.672Z,2112
2017-02-11T13:11:24.726Z,2128
2017-02-11T13:12:24.777Z,2124
2017-02-11T13:13:24.844Z,2120
2017-02-11T13:14:24.896Z,2108
2017-02-11T13:15:24.947Z,2108
2017-02-11T13:16:25.006Z,2092
2017-02-11T13:17:25.060Z,2076
2017-02-11T13:18:25.122Z,2056
2017-02-11T13:19:25.177Z,2052
2017-02-11T13:20:25.226Z,1972
2017-02-11T13:21:25.285Z,1936
2017-02-11T13:22:25.339Z,1868
2017-02-11T13:23:25.442Z,1916
2017-02-11T13:24:25.447Z,1924
2017-02-11T13:25:25.524Z,1972
2017-02-11T13:26:25.578Z,1964
2017-02-11T13:27:25.635Z,1896
2017-02-11T13:28:25.680Z,1772
2017-02-11T13:29:25.731Z,1616
2017-02-11T13:30:25.797Z,1672
2017-02-11T13:31:25.853Z,1748
2017-02-11T13:32:25.911Z,1848
2017-02-11T13:33:25.968Z,1708
2017-02-11T13:34:26.012Z,1712
2017-02-11T13:35:26.071Z,1768
2017-02-11T13:36:26.134Z,1780
2017-02-11T13:37:26.189Z,1976
2017-02-11T13:38:26.255Z,2004
2017-02-11T13:39:26.310Z,1988
2017-02-11T13:40:26.367Z,2016
2017-02-11T13:41:26.421Z,1992
2017-02-11T13:42:26.476Z,1956
2017-02-11T13:43:26.529Z,1884
2017-02-11T13:44:26.583Z,1808
2017-02-11T13:45:26.647Z,1780
2017-02-11T13:46:26.693Z,1776
2017-02-11T13:47:26.755Z,1756
2017-02-11T13:48:26.810Z,1712
2017-02-11T13:49:26.862Z,1636
2017-02-11T13:50:26.914Z,1644
2017-02-11T13:51:26.979Z,1696
2017-02-11T13:52:27.040Z,1672
2017-02-11T13:53:27.094Z,1680
2017-02-11T13:54:27.159Z,1672
2017-02-11T13:55:27.209Z,1660
2017-02-11T13:56:27.284Z,1648
2017-02-11T13:57:27.327Z,1640
2017-02-11T13:58:27.377Z,1632
2017-02-11T13:59:27.427Z,1628